Time;durP1;ratioP1;P1;durP2;ratioP2;P2;SDS_P1;SDS_P2;PMS_P1;PMS_P2;Temp;Humidity;BMP_temperature;BMP_pressure;BME280_temperature;BME280_humidity;BME280_pressure;Samples;Min_cycle;Max_cycle;Signal;HPM_P1;HPM_P2
2022/06/28 00:02:24;;;;;;;9.07;6.43;;;18.30;70.20;;;;;;5032839;28;46312;-62
2022/06/28 00:04:50;;;;;;;17.57;7.00;;;18.30;70.40;;;;;;5034007;28;46549;-64
2022/06/28 00:07:16;;;;;;;11.73;7.20;;;18.30;70.50;;;;;;5031179;28;45892;-63
2022/06/28 00:09:41;;;;;;;10.77;6.73;;;18.30;70.40;;;;;;5032749;28;47942;-64
2022/06/28 00:12:07;;;;;;;11.33;7.10;;;18.30;70.40;;;;;;5033613;28;46355;-62
2022/06/28 00:17:17;;;;;;;13.00;7.57;;;18.20;70.50;;;;;;5032494;28;46433;-62
2022/06/28 00:19:43;;;;;;;10.33;7.10;;;18.20;70.50;;;;;;5031748;28;46621;-63
2022/06/28 00:22:09;;;;;;;16.20;6.80;;;18.20;70.60;;;;;;5035063;28;46328;-63
2022/06/28 00:24:34;;;;;;;11.37;7.07;;;18.20;70.80;;;;;;5033450;28;46790;-62
2022/06/28 00:27:00;;;;;;;10.60;6.87;;;18.20;71.10;;;;;;5032193;28;46486;-62
2022/06/28 00:29:26;;;;;;;11.90;6.23;;;18.10;71.10;;;;;;5030251;28;47238;-63
2022/06/28 00:31:51;;;;;;;16.07;6.57;;;18.00;71.30;;;;;;5032923;28;46504;-62
2022/06/28 00:34:17;;;;;;;10.57;5.93;;;18.00;71.40;;;;;;5034668;28;46495;-63
2022/06/28 00:36:43;;;;;;;15.33;6.90;;;18.00;71.60;;;;;;5034281;28;46467;-62
2022/06/28 00:39:08;;;;;;;12.00;6.20;;;17.90;71.70;;;;;;5027070;28;46658;-63
2022/06/28 00:41:34;;;;;;;20.30;6.87;;;17.90;71.70;;;;;;5030988;28;45997;-62
2022/06/28 00:44:01;;;;;;;14.97;6.87;;;17.90;71.70;;;;;;5027874;28;46391;-64
2022/06/28 00:46:27;;;;;;;14.27;6.10;;;17.90;71.70;;;;;;5034969;28;46434;-62
2022/06/28 00:48:53;;;;;;;9.93;5.43;;;17.90;71.70;;;;;;5029326;28;45978;-62
2022/06/28 00:51:18;;;;;;;15.80;5.50;;;17.90;71.70;;;;;;5031440;28;46422;-62
2022/06/28 00:53:44;;;;;;;11.20;5.17;;;17.90;71.80;;;;;;5031592;28;46481;-63
2022/06/28 00:56:10;;;;;;;10.57;4.27;;;17.80;71.70;;;;;;5032749;28;46566;-62
2022/06/28 00:58:35;;;;;;;9.03;4.30;;;17.80;71.70;;;;;;5030833;28;47292;-63
2022/06/28 01:01:01;;;;;;;6.60;4.30;;;17.70;71.60;;;;;;5030601;28;46465;-63
2022/06/28 01:03:27;;;;;;;7.23;4.50;;;17.70;71.60;;;;;;5030097;28;46435;-62
2022/06/28 01:05:54;;;;;;;13.40;4.47;;;17.60;72.80;;;;;;5035394;28;46470;-62
2022/06/28 01:08:20;;;;;;;6.13;4.20;;;17.50;71.80;;;;;;5032921;28;46637;-64
2022/06/28 01:10:47;;;;;;;11.13;4.70;;;17.40;72.00;;;;;;5033612;28;46413;-62
2022/06/28 01:13:13;;;;;;;10.50;4.60;;;17.40;72.20;;;;;;5030023;28;46440;-63
2022/06/28 01:15:41;;;;;;;13.83;4.40;;;17.30;72.30;;;;;;5032913;28;46529;-64
2022/06/28 01:18:08;;;;;;;16.20;5.10;;;17.20;72.30;;;;;;5027600;28;46366;-64
2022/06/28 01:20:34;;;;;;;9.53;4.20;;;17.20;72.60;;;;;;5031045;28;46640;-63
2022/06/28 01:23:01;;;;;;;10.20;4.30;;;17.10;72.70;;;;;;5031544;28;46361;-62
2022/06/28 01:25:26;;;;;;;9.67;4.73;;;17.10;72.70;;;;;;5030696;28;46434;-62
2022/06/28 01:27:54;;;;;;;6.97;4.57;;;17.10;72.60;;;;;;5032922;28;47722;-63
2022/06/28 01:30:20;;;;;;;9.40;4.53;;;17.10;72.40;;;;;;5030378;28;46481;-63
2022/06/28 01:32:46;;;;;;;11.90;4.57;;;17.20;72.20;;;;;;5031978;28;46366;-64
2022/06/28 01:35:11;;;;;;;8.00;4.30;;;17.30;71.70;;;;;;5035504;28;46645;-64
2022/06/28 01:37:37;;;;;;;7.30;4.17;;;17.30;71.40;;;;;;5030508;28;46929;-62
2022/06/28 01:40:04;;;;;;;8.90;4.30;;;17.30;71.20;;;;;;5034517;28;46446;-63
2022/06/28 01:42:31;;;;;;;9.63;4.67;;;17.30;71.20;;;;;;5033399;28;46480;-64
2022/06/28 01:44:58;;;;;;;9.13;3.90;;;17.40;71.30;;;;;;5027992;28;46354;-63
2022/06/28 01:47:26;;;;;;;8.93;4.50;;;17.40;71.30;;;;;;5030722;28;46690;-62
2022/06/28 01:49:52;;;;;;;11.93;4.57;;;17.40;71.30;;;;;;5030414;28;46374;-62
2022/06/28 01:52:18;;;;;;;11.13;3.73;;;17.30;71.20;;;;;;5031441;28;46450;-62
2022/06/28 01:54:44;;;;;;;8.43;3.90;;;17.30;71.40;;;;;;5033195;28;46651;-63
2022/06/28 01:57:10;;;;;;;9.90;4.50;;;17.30;71.30;;;;;;5029916;28;46437;-63
2022/06/28 01:59:38;;;;;;;8.43;4.80;;;17.30;71.30;;;;;;5030801;28;46412;-63
2022/06/28 02:02:04;;;;;;;7.50;4.23;;;17.30;71.50;;;;;;5028996;28;46380;-63
2022/06/28 02:04:30;;;;;;;10.20;4.30;;;17.30;71.40;;;;;;5033082;28;46253;-63
2022/06/28 02:06:57;;;;;;;12.63;4.07;;;17.30;71.60;;;;;;5029964;28;48056;-64
2022/06/28 02:09:23;;;;;;;12.70;3.83;;;17.30;71.50;;;;;;5027524;28;46486;-64
2022/06/28 02:11:49;;;;;;;19.03;4.67;;;17.40;71.30;;;;;;5028839;28;45880;-64
2022/06/28 02:14:15;;;;;;;10.90;4.33;;;17.40;71.30;;;;;;5027987;28;46441;-63
2022/06/28 02:16:41;;;;;;;12.80;4.10;;;17.40;71.30;;;;;;5032884;28;46570;-64
2022/06/28 02:19:07;;;;;;;16.77;4.00;;;17.40;72.50;;;;;;5026345;28;46323;-63
2022/06/28 02:21:42;;;;;;;11.87;3.90;;;17.50;71.40;;;;;;5030566;28;46502;-63
2022/06/28 02:24:10;;;;;;;9.87;3.97;;;17.50;71.40;;;;;;5031120;28;46398;-62
2022/06/28 02:26:35;;;;;;;15.63;4.33;;;17.50;71.40;;;;;;5031269;28;46684;-63
2022/06/28 02:29:04;;;;;;;8.10;4.33;;;17.50;72.60;;;;;;5028707;28;46721;-62
2022/06/28 02:31:30;;;;;;;9.83;3.50;;;17.50;71.40;;;;;;5030877;28;46449;-64
2022/06/28 02:33:56;;;;;;;11.33;3.70;;;17.50;71.40;;;;;;5035166;28;46662;-63
2022/06/28 02:41:52;;;;;;;8.33;4.00;;;17.60;72.40;;;;;;5034605;28;46413;-61
2022/06/28 02:44:18;;;;;;;16.60;3.83;;;17.60;71.00;;;;;;5034226;28;46664;-61
2022/06/28 02:46:45;;;;;;;19.03;3.70;;;17.60;70.90;;;;;;5037461;28;46589;-62
2022/06/28 02:49:10;;;;;;;6.77;3.70;;;17.70;70.80;;;;;;5030984;28;46493;-63
2022/06/28 02:51:36;;;;;;;7.70;3.53;;;17.60;70.70;;;;;;5036170;28;46585;-64
2022/06/28 02:54:02;;;;;;;7.07;3.70;;;17.60;70.70;;;;;;5034489;28;46034;-63
2022/06/28 02:56:27;;;;;;;12.60;4.13;;;17.70;70.80;;;;;;5033437;28;47227;-64
2022/06/28 02:58:53;;;;;;;11.83;4.40;;;17.70;70.60;;;;;;5035037;28;47042;-64
2022/06/28 03:01:18;;;;;;;9.43;3.90;;;17.70;70.60;;;;;;5031950;28;46397;-63
2022/06/28 03:03:44;;;;;;;10.33;3.40;;;17.70;70.40;;;;;;5036611;28;46446;-63
2022/06/28 03:06:10;;;;;;;9.23;4.73;;;17.70;70.30;;;;;;5032096;28;47088;-64
2022/06/28 03:08:35;;;;;;;9.13;3.90;;;17.70;70.30;;;;;;5031950;28;46305;-62
2022/06/28 03:11:01;;;;;;;7.37;3.83;;;17.70;70.30;;;;;;5034694;28;46088;-63
2022/06/28 03:13:27;;;;;;;7.50;3.60;;;17.70;70.30;;;;;;5029360;28;45898;-63
2022/06/28 03:15:53;;;;;;;8.80;4.27;;;17.70;71.20;;;;;;5034963;28;46637;-64
2022/06/28 03:18:19;;;;;;;8.20;4.10;;;17.80;70.10;;;;;;5033554;28;46376;-64
2022/06/28 03:20:44;;;;;;;8.63;3.93;;;17.80;70.00;;;;;;5034313;28;46405;-62
2022/06/28 03:23:10;;;;;;;12.23;3.83;;;17.80;70.00;;;;;;5033915;28;46439;-62
2022/06/28 03:25:36;;;;;;;10.50;3.57;;;17.90;70.00;;;;;;5032381;28;46414;-62
2022/06/28 03:28:04;;;;;;;12.93;4.50;;;17.90;69.90;;;;;;5036833;28;46394;-62
2022/06/28 03:30:33;;;;;;;12.50;3.90;;;17.90;69.90;;;;;;5032177;28;46475;-65
2022/06/28 03:32:59;;;;;;;8.50;4.23;;;18.00;69.80;;;;;;5034643;28;46442;-62
2022/06/28 03:35:24;;;;;;;6.93;3.50;;;18.00;69.80;;;;;;5032022;28;47065;-63
2022/06/28 03:37:50;;;;;;;6.73;3.63;;;18.00;69.90;;;;;;5037304;28;46315;-62
2022/06/28 03:40:16;;;;;;;7.27;3.90;;;18.00;69.70;;;;;;5036326;28;46370;-63
2022/06/28 03:42:42;;;;;;;10.03;3.87;;;18.00;69.60;;;;;;5033230;28;46401;-63
2022/06/28 03:45:08;;;;;;;8.47;3.97;;;18.00;69.50;;;;;;5032124;28;47286;-63
2022/06/28 03:47:33;;;;;;;7.47;3.40;;;18.10;69.30;;;;;;5034446;28;46398;-63
2022/06/28 03:49:59;;;;;;;18.47;3.53;;;18.20;69.10;;;;;;5032774;28;46359;-64
2022/06/28 03:52:28;;;;;;;10.03;3.70;;;18.20;68.80;;;;;;5033095;28;46822;-62
2022/06/28 03:54:58;;;;;;;8.13;3.93;;;18.20;68.80;;;;;;5034203;28;46299;-63
2022/06/28 03:57:25;;;;;;;11.00;3.90;;;18.30;68.80;;;;;;5038478;28;46355;-64
2022/06/28 03:59:51;;;;;;;15.17;3.90;;;18.30;68.60;;;;;;5030158;28;46371;-62
2022/06/28 04:02:17;;;;;;;10.90;3.67;;;18.30;68.50;;;;;;5033453;28;46603;-66
2022/06/28 04:04:42;;;;;;;11.90;3.60;;;18.40;68.60;;;;;;5034895;28;46224;-62
2022/06/28 04:07:08;;;;;;;14.70;4.00;;;18.40;68.60;;;;;;5028936;28;46423;-63
2022/06/28 04:09:34;;;;;;;7.87;3.63;;;18.50;68.40;;;;;;5034588;28;46480;-63
2022/06/28 04:12:00;;;;;;;7.10;3.10;;;18.60;68.20;;;;;;5030527;28;46635;-62
2022/06/28 04:14:25;;;;;;;11.00;3.90;;;18.60;68.10;;;;;;5032787;28;46197;-62
2022/06/28 04:16:51;;;;;;;12.00;3.90;;;18.60;67.90;;;;;;5035217;28;46435;-62
2022/06/28 04:19:16;;;;;;;9.33;3.83;;;18.50;68.10;;;;;;5033504;28;46394;-62
2022/06/28 04:21:42;;;;;;;12.20;3.87;;;18.50;68.40;;;;;;5034535;28;46408;-63
2022/06/28 04:24:08;;;;;;;7.70;3.73;;;18.60;68.60;;;;;;5029705;28;46417;-62
2022/06/28 04:26:34;;;;;;;7.87;3.43;;;18.60;68.30;;;;;;5034250;28;46426;-66
2022/06/28 04:28:59;;;;;;;9.27;3.50;;;18.70;68.20;;;;;;5034245;28;46402;-62
2022/06/28 04:31:25;;;;;;;8.10;3.90;;;18.70;68.10;;;;;;5032109;28;46499;-62
2022/06/28 04:33:51;;;;;;;6.27;4.30;;;18.80;67.80;;;;;;5032200;28;46851;-63
2022/06/28 04:36:16;;;;;;;13.30;4.20;;;18.80;68.90;;;;;;5030996;28;46464;-62
2022/06/28 04:38:42;;;;;;;9.03;4.70;;;18.90;67.50;;;;;;5032320;28;46198;-63
2022/06/28 04:41:08;;;;;;;10.00;4.80;;;19.00;67.30;;;;;;5034223;28;46377;-64
2022/06/28 04:43:34;;;;;;;9.50;4.87;;;19.10;67.20;;;;;;5032763;28;46430;-66
2022/06/28 04:45:59;;;;;;;8.83;5.23;;;19.20;67.00;;;;;;5031241;28;46421;-62
2022/06/28 04:48:25;;;;;;;10.80;4.50;;;19.30;66.90;;;;;;5029862;28;46531;-64
2022/06/28 04:50:50;;;;;;;8.50;5.10;;;19.40;66.60;;;;;;5030915;28;46388;-62
2022/06/28 04:53:16;;;;;;;12.73;4.70;;;19.50;66.50;;;;;;5032025;28;46644;-63
2022/06/28 04:55:42;;;;;;;18.53;5.03;;;19.60;66.40;;;;;;5032257;28;46413;-63
2022/06/28 04:58:07;;;;;;;11.17;5.40;;;19.80;65.90;;;;;;5027951;28;46312;-64
2022/06/28 05:00:33;;;;;;;9.30;5.23;;;19.90;65.60;;;;;;5030127;28;46492;-62
2022/06/28 05:02:59;;;;;;;7.23;4.57;;;20.00;65.00;;;;;;5026609;28;47829;-62
2022/06/28 05:05:24;;;;;;;6.40;4.50;;;20.40;64.30;;;;;;5037272;28;46450;-63
2022/06/28 05:07:50;;;;;;;7.57;4.40;;;21.40;62.90;;;;;;5031892;28;46378;-62
2022/06/28 05:10:15;;;;;;;7.20;4.83;;;22.00;61.30;;;;;;5029670;28;46310;-62
2022/06/28 05:12:41;;;;;;;8.50;4.70;;;22.00;59.60;;;;;;5030433;28;46367;-62
2022/06/28 05:15:07;;;;;;;6.57;4.40;;;21.90;59.10;;;;;;5031205;28;46568;-62
2022/06/28 05:17:32;;;;;;;6.43;4.40;;;21.80;58.80;;;;;;5032196;28;45780;-63
2022/06/28 05:19:58;;;;;;;8.30;4.40;;;21.60;58.80;;;;;;5029438;28;46720;-62
2022/06/28 05:22:24;;;;;;;6.60;4.40;;;21.60;58.30;;;;;;5031172;28;46435;-62
2022/06/28 05:24:49;;;;;;;10.17;4.70;;;21.50;58.20;;;;;;5030200;28;46456;-62
2022/06/28 05:27:16;;;;;;;9.70;4.10;;;21.10;58.90;;;;;;5032456;28;46442;-63
2022/06/28 05:29:41;;;;;;;8.93;4.10;;;20.80;59.90;;;;;;5026605;28;46377;-63
2022/06/28 05:32:07;;;;;;;9.40;4.70;;;20.70;59.90;;;;;;5028994;28;46646;-61
2022/06/28 05:34:33;;;;;;;10.57;5.20;;;20.60;59.40;;;;;;5036965;28;46426;-63
2022/06/28 05:36:58;;;;;;;6.97;5.30;;;20.30;60.90;;;;;;5030333;28;46506;-65
2022/06/28 05:39:24;;;;;;;9.47;5.57;;;20.20;60.40;;;;;;5026527;28;46692;-62
2022/06/28 05:41:50;;;;;;;7.83;5.40;;;20.10;60.60;;;;;;5031385;28;48070;-62
2022/06/28 05:44:16;;;;;;;8.23;5.17;;;20.10;60.10;;;;;;5027746;28;46415;-63
2022/06/28 05:46:42;;;;;;;11.33;4.27;;;20.00;60.50;;;;;;5030294;28;45776;-63
2022/06/28 05:49:08;;;;;;;8.70;4.63;;;20.00;60.10;;;;;;5031497;28;46096;-64
2022/06/28 05:51:34;;;;;;;7.90;4.97;;;20.20;60.60;;;;;;5030864;28;46441;-62
2022/06/28 05:54:01;;;;;;;6.20;4.27;;;20.50;58.60;;;;;;5028776;28;46682;-63
2022/06/28 05:56:27;;;;;;;8.73;4.83;;;20.40;58.60;;;;;;5028346;28;45911;-63
2022/06/28 05:58:52;;;;;;;12.37;5.33;;;20.20;59.00;;;;;;5031270;28;45955;-63
2022/06/28 06:01:19;;;;;;;9.47;4.70;;;20.10;59.50;;;;;;5029312;28;48148;-62
2022/06/28 06:03:44;;;;;;;13.40;5.10;;;20.20;59.40;;;;;;5032878;28;46504;-63
2022/06/28 06:06:10;;;;;;;13.07;5.37;;;20.10;59.60;;;;;;5028201;28;46473;-62
2022/06/28 06:08:36;;;;;;;8.57;4.80;;;20.10;59.80;;;;;;5027583;28;46755;-63
2022/06/28 06:11:03;;;;;;;9.20;4.93;;;20.10;59.60;;;;;;5035760;28;47017;-62
2022/06/28 06:13:28;;;;;;;9.93;5.27;;;20.00;59.80;;;;;;5034447;28;45895;-63
2022/06/28 06:15:54;;;;;;;8.07;5.57;;;20.30;59.60;;;;;;5041879;28;46611;-63
2022/06/28 06:18:20;;;;;;;7.93;5.10;;;20.40;59.30;;;;;;5036571;28;46394;-65
2022/06/28 06:20:46;;;;;;;10.83;4.90;;;20.50;59.30;;;;;;5037573;28;46702;-64
2022/06/28 06:23:11;;;;;;;10.07;5.57;;;20.80;58.80;;;;;;5036902;28;46406;-63
2022/06/28 06:25:37;;;;;;;8.20;4.70;;;21.20;57.60;;;;;;5042107;28;45860;-62
2022/06/28 06:28:03;;;;;;;12.27;4.73;;;21.80;56.00;;;;;;5040477;28;46428;-63
2022/06/28 06:30:28;;;;;;;8.67;4.43;;;22.40;54.10;;;;;;5039194;28;46423;-63
2022/06/28 06:32:54;;;;;;;6.10;4.37;;;22.50;53.30;;;;;;5036208;28;46457;-61
2022/06/28 06:35:20;;;;;;;9.20;4.63;;;22.10;53.60;;;;;;5034981;28;46354;-62
2022/06/28 06:37:46;;;;;;;7.80;4.87;;;21.70;54.10;;;;;;5039108;28;45887;-62
2022/06/28 06:40:11;;;;;;;9.50;5.10;;;21.50;54.30;;;;;;5031197;28;47084;-62
2022/06/28 06:42:37;;;;;;;8.30;4.60;;;21.60;54.50;;;;;;5037086;28;46516;-64
2022/06/28 06:45:03;;;;;;;5.67;4.10;;;22.20;53.10;;;;;;5036246;28;46335;-62
2022/06/28 06:47:28;;;;;;;7.50;4.60;;;22.60;51.80;;;;;;5037980;28;46401;-62
2022/06/28 06:49:54;;;;;;;6.20;4.20;;;22.50;51.50;;;;;;5043023;28;46375;-63
2022/06/28 06:52:19;;;;;;;6.47;4.17;;;22.40;51.60;;;;;;5035806;28;46557;-62
2022/06/28 06:54:45;;;;;;;6.93;4.53;;;22.80;50.20;;;;;;5039986;28;46476;-62
2022/06/28 06:57:11;;;;;;;6.20;4.07;;;22.90;50.00;;;;;;5034262;28;45911;-62
2022/06/28 06:59:36;;;;;;;11.93;4.37;;;22.90;49.40;;;;;;5036866;28;47357;-62
2022/06/28 07:02:02;;;;;;;6.93;4.20;;;22.70;50.10;;;;;;5037387;28;46545;-62
2022/06/28 07:04:28;;;;;;;5.67;3.43;;;22.70;50.10;;;;;;5036405;28;46437;-61
2022/06/28 07:06:55;;;;;;;5.27;3.27;;;22.50;50.00;;;;;;5036748;28;46503;-63
2022/06/28 07:09:22;;;;;;;6.47;3.23;;;22.70;48.90;;;;;;5034234;28;46283;-61
2022/06/28 07:11:48;;;;;;;7.23;3.23;;;22.70;48.70;;;;;;5036890;28;46440;-61
2022/06/28 07:14:14;;;;;;;8.23;3.37;;;23.20;47.10;;;;;;5037655;28;46346;-62
2022/06/28 07:16:39;;;;;;;7.50;3.83;;;23.80;45.40;;;;;;5038724;28;46865;-61
2022/06/28 07:19:05;;;;;;;6.93;3.87;;;23.80;45.00;;;;;;5036810;28;48230;-62
2022/06/28 07:21:31;;;;;;;6.90;3.97;;;24.20;44.20;;;;;;5031761;28;46429;-61
2022/06/28 07:23:56;;;;;;;8.53;4.20;;;24.40;43.40;;;;;;5035822;28;46385;-62
2022/06/28 07:26:23;;;;;;;18.17;5.20;;;24.40;42.90;;;;;;5032874;28;46341;-61
2022/06/28 07:28:49;;;;;;;6.60;3.37;;;23.90;43.00;;;;;;5034583;28;46356;-62
2022/06/28 07:31:15;;;;;;;5.23;3.40;;;23.70;43.90;;;;;;5032706;28;46601;-62
2022/06/28 07:33:41;;;;;;;5.73;3.57;;;23.30;44.90;;;;;;5031999;28;46418;-62
2022/06/28 07:36:07;;;;;;;4.57;3.67;;;23.10;46.00;;;;;;5036763;28;46427;-61
2022/06/28 07:38:33;;;;;;;6.00;4.43;;;23.00;46.50;;;;;;5033363;28;46465;-61
2022/06/28 07:40:59;;;;;;;7.37;3.83;;;22.40;47.00;;;;;;5042638;28;45852;-62
2022/06/28 07:43:27;;;;;;;8.47;3.43;;;22.20;48.20;;;;;;5032604;28;46387;-62
2022/06/28 07:45:53;;;;;;;6.53;3.27;;;22.10;48.30;;;;;;5035120;28;46685;-61
2022/06/28 07:48:19;;;;;;;14.83;3.27;;;22.00;48.70;;;;;;5031149;28;48027;-62
2022/06/28 07:53:32;;;;;;;4.17;2.77;;;22.10;48.20;;;;;;5033298;28;46790;-62
2022/06/28 07:55:58;;;;;;;7.13;2.63;;;22.20;47.70;;;;;;5032601;28;46613;-62
2022/06/28 07:58:24;;;;;;;6.83;2.77;;;22.50;46.80;;;;;;5029877;28;46443;-62
2022/06/28 08:00:50;;;;;;;4.67;2.70;;;22.60;46.60;;;;;;5031699;28;46460;-63
2022/06/28 08:03:15;;;;;;;4.80;2.70;;;22.70;46.50;;;;;;5032350;28;46530;-61
2022/06/28 08:05:41;;;;;;;5.10;3.10;;;22.50;46.70;;;;;;5030964;28;46421;-63
2022/06/28 08:08:07;;;;;;;5.90;3.30;;;22.40;45.70;;;;;;5032048;28;47116;-62
2022/06/28 08:10:33;;;;;;;4.97;2.73;;;22.50;46.00;;;;;;5030605;28;46474;-61
2022/06/28 08:12:59;;;;;;;3.87;2.50;;;22.70;45.60;;;;;;5031185;28;46319;-61
2022/06/28 08:15:24;;;;;;;5.03;2.80;;;22.80;45.00;;;;;;5029043;28;46575;-61
2022/06/28 08:17:50;;;;;;;4.00;2.50;;;22.90;43.80;;;;;;5033152;28;46415;-63
2022/06/28 08:20:15;;;;;;;3.70;2.40;;;22.80;43.90;;;;;;5029491;28;46307;-61
2022/06/28 08:22:41;;;;;;;13.57;2.40;;;22.60;43.50;;;;;;5033621;28;46352;-63
2022/06/28 08:25:08;;;;;;;5.30;2.90;;;22.70;43.50;;;;;;5033878;28;46409;-62
2022/06/28 08:27:33;;;;;;;4.07;2.60;;;22.60;43.80;;;;;;5036022;28;47385;-61
2022/06/28 08:29:59;;;;;;;6.17;2.90;;;22.50;44.00;;;;;;5030457;28;46362;-61
2022/06/28 08:32:25;;;;;;;7.10;2.60;;;22.60;43.90;;;;;;5027775;28;46498;-62
2022/06/28 08:34:51;;;;;;;4.93;2.90;;;23.00;43.10;;;;;;5034961;28;46562;-61
2022/06/28 08:37:16;;;;;;;6.43;2.67;;;23.10;43.10;;;;;;5037443;28;46434;-60
2022/06/28 08:39:42;;;;;;;5.03;2.70;;;23.40;42.30;;;;;;5033329;28;46377;-61
2022/06/28 08:42:10;;;;;;;8.80;2.13;;;23.50;42.50;;;;;;5031235;28;46405;-64
2022/06/28 08:44:36;;;;;;;4.03;2.40;;;23.50;42.20;;;;;;5034886;28;46629;-64
2022/06/28 08:47:03;;;;;;;6.40;3.10;;;23.50;42.20;;;;;;5032263;28;47244;-64
2022/06/28 08:49:47;;;;;;;4.97;2.90;;;23.70;41.00;;;;;;5031844;28;46733;-63
2022/06/28 08:52:14;;;;;;;4.13;2.60;;;23.30;40.70;;;;;;5030676;28;46436;-63
2022/06/28 08:54:41;;;;;;;4.90;3.07;;;23.60;40.50;;;;;;5027853;28;46330;-62
2022/06/28 08:57:07;;;;;;;8.07;2.87;;;23.60;39.60;;;;;;5033831;28;46513;-61
2022/06/28 08:59:34;;;;;;;4.00;2.33;;;23.50;39.30;;;;;;5035533;28;45839;-63
2022/06/28 09:02:01;;;;;;;7.70;2.77;;;23.70;38.90;;;;;;5034186;28;45922;-62
2022/06/28 09:04:31;;;;;;;13.13;2.80;;;23.90;38.00;;;;;;5031403;28;46426;-62
2022/06/28 09:06:57;;;;;;;6.33;2.53;;;24.10;37.80;;;;;;5032934;28;46363;-62
2022/06/28 09:09:23;;;;;;;4.33;2.70;;;24.20;38.00;;;;;;5032852;28;46453;-63
2022/06/28 09:11:50;;;;;;;5.60;2.40;;;24.10;37.80;;;;;;5033058;28;46424;-63
2022/06/28 09:14:23;;;;;;;7.07;3.40;;;24.00;37.70;;;;;;5037463;28;46701;-62
2022/06/28 09:16:49;;;;;;;6.10;2.93;;;23.90;37.60;;;;;;5034165;28;46533;-61
2022/06/28 09:19:15;;;;;;;6.20;3.20;;;23.80;37.50;;;;;;5032628;28;46387;-63
2022/06/28 09:21:46;;;;;;;5.10;2.63;;;23.80;38.30;;;;;;5031074;28;46513;-64
2022/06/28 09:24:24;;;;;;;9.43;2.90;;;23.90;38.50;;;;;;5031787;28;46410;-61
2022/06/28 09:27:00;;;;;;;4.60;2.73;;;23.80;38.40;;;;;;5030659;28;46406;-62
2022/06/28 09:29:25;;;;;;;5.40;3.30;;;23.70;38.50;;;;;;5031301;28;46347;-61
2022/06/28 09:31:51;;;;;;;3.70;2.53;;;23.70;38.60;;;;;;5031382;28;46469;-62
2022/06/28 09:34:17;;;;;;;5.37;3.20;;;23.60;38.90;;;;;;5029729;28;46389;-63
2022/06/28 09:36:55;;;;;;;5.17;2.90;;;23.80;38.60;;;;;;5033096;28;46466;-62
2022/06/28 09:39:28;;;;;;;4.40;2.90;;;24.00;37.70;;;;;;5028582;28;46512;-63
2022/06/28 09:41:55;;;;;;;8.70;2.80;;;23.80;38.50;;;;;;5032982;28;46442;-63
2022/06/28 09:44:28;;;;;;;4.27;2.87;;;23.70;39.00;;;;;;5028518;28;46367;-63
2022/06/28 09:46:57;;;;;;;4.93;3.40;;;23.80;38.80;;;;;;5032522;28;46315;-63
2022/06/28 09:49:32;;;;;;;5.90;3.57;;;23.80;38.70;;;;;;5028030;28;46726;-62
2022/06/28 09:51:59;;;;;;;5.50;2.90;;;23.70;38.60;;;;;;5033821;28;46525;-61
2022/06/28 09:54:31;;;;;;;9.83;3.00;;;23.70;39.10;;;;;;5029429;28;46584;-63
2022/06/28 09:56:57;;;;;;;4.70;2.80;;;23.80;39.10;;;;;;5033846;28;46957;-63
2022/06/28 09:59:26;;;;;;;5.00;3.17;;;23.80;40.50;;;;;;5029824;28;46495;-62
2022/06/28 10:01:55;;;;;;;4.17;2.63;;;24.00;38.90;;;;;;5031931;28;46480;-63
2022/06/28 10:04:26;;;;;;;4.43;2.50;;;24.10;38.80;;;;;;5029338;28;46511;-61
2022/06/28 10:06:52;;;;;;;3.60;2.33;;;24.20;38.50;;;;;;5029626;28;46388;-64
2022/06/28 10:09:19;;;;;;;4.83;2.43;;;24.00;38.90;;;;;;5031573;28;46374;-63
2022/06/28 10:17:29;;;;;;;5.03;2.60;;;23.90;38.80;;;;;;5030391;28;46366;-61
2022/06/28 10:19:57;;;;;;;10.07;2.90;;;23.80;39.20;;;;;;5031194;28;46688;-61
2022/06/28 10:22:23;;;;;;;5.00;2.60;;;24.00;38.80;;;;;;5029228;28;46299;-62
2022/06/28 10:24:54;;;;;;;3.50;2.10;;;24.00;38.90;;;;;;5033114;28;46444;-62
2022/06/28 10:27:20;;;;;;;5.97;2.60;;;24.00;39.00;;;;;;5028879;28;46921;-63
2022/06/28 10:29:58;;;;;;;4.83;3.10;;;23.90;39.20;;;;;;5031257;28;46402;-63
2022/06/28 10:32:48;;;;;;;3.50;2.50;;;24.00;39.00;;;;;;5029921;28;46394;-63
2022/06/28 10:35:29;;;;;;;3.30;2.23;;;24.30;38.10;;;;;;5031154;28;46367;-61
2022/06/28 10:38:10;;;;;;;5.00;2.90;;;24.50;38.30;;;;;;5028902;28;46436;-60
2022/06/28 10:40:41;;;;;;;3.60;2.40;;;24.50;37.60;;;;;;5028682;28;46319;-60
2022/06/28 10:43:08;;;;;;;4.43;2.40;;;24.80;37.20;;;;;;5029298;28;46424;-62
2022/06/28 10:46:06;;;;;;;4.53;2.40;;;24.90;37.10;;;;;;5031875;28;46328;-63
2022/06/28 10:48:56;;;;;;;4.07;2.40;;;24.80;36.60;;;;;;5027756;28;47273;-61
2022/06/28 10:51:22;;;;;;;7.37;2.40;;;24.60;36.80;;;;;;5028406;28;46259;-62
2022/06/28 10:54:06;;;;;;;5.47;2.60;;;24.50;37.40;;;;;;5030050;28;46386;-64
2022/06/28 10:56:36;;;;;;;6.40;2.60;;;24.50;37.40;;;;;;5031197;28;46449;-62
2022/06/28 10:59:17;;;;;;;5.70;3.07;;;24.40;38.00;;;;;;5031117;28;47179;-64
2022/06/28 11:01:52;;;;;;;5.50;2.50;;;24.60;36.90;;;;;;5032092;28;46747;-62
2022/06/28 11:04:21;;;;;;;3.90;2.40;;;24.30;37.10;;;;;;5034029;28;46507;-62
2022/06/28 11:07:00;;;;;;;4.80;2.70;;;24.10;37.80;;;;;;5035681;28;46559;-62
2022/06/28 11:09:50;;;;;;;8.63;3.03;;;24.50;36.70;;;;;;5031837;28;46367;-62
2022/06/28 11:12:24;;;;;;;5.20;2.60;;;24.40;38.30;;;;;;5033203;28;46555;-64
2022/06/28 11:14:54;;;;;;;5.10;2.80;;;23.80;37.50;;;;;;5033579;28;46404;-61
2022/06/28 11:17:32;;;;;;;5.27;2.40;;;24.00;37.70;;;;;;5030315;28;46525;-62
2022/06/28 11:20:05;;;;;;;4.77;2.70;;;24.00;37.70;;;;;;5034056;28;46405;-63
2022/06/28 11:22:37;;;;;;;6.73;3.03;;;24.20;37.90;;;;;;5030730;28;46421;-64
2022/06/28 11:25:06;;;;;;;5.07;2.93;;;24.20;39.10;;;;;;5037301;28;46369;-61
2022/06/28 11:27:32;;;;;;;5.50;2.70;;;23.70;38.70;;;;;;5038168;28;46418;-61
2022/06/28 11:30:05;;;;;;;5.10;2.50;;;23.60;40.50;;;;;;5036707;28;48112;-63
2022/06/28 11:32:33;;;;;;;5.40;2.40;;;23.50;39.40;;;;;;5033947;28;45838;-63
2022/06/28 11:34:58;;;;;;;7.03;2.77;;;23.30;39.80;;;;;;5034769;28;46459;-60
2022/06/28 11:37:24;;;;;;;4.70;2.80;;;22.90;40.80;;;;;;5034990;28;46494;-62
2022/06/28 11:39:52;;;;;;;5.20;2.73;;;22.80;41.80;;;;;;5031803;28;46418;-61
2022/06/28 11:42:18;;;;;;;4.10;2.63;;;22.80;42.00;;;;;;5040531;28;46390;-61
2022/06/28 11:44:45;;;;;;;4.80;3.40;;;22.50;42.40;;;;;;5034198;28;46402;-61
2022/06/28 11:47:10;;;;;;;4.93;2.90;;;22.40;42.90;;;;;;5032127;28;46435;-62
2022/06/28 11:49:36;;;;;;;4.70;2.83;;;22.20;43.40;;;;;;5029998;28;46401;-62
2022/06/28 11:52:03;;;;;;;10.53;3.50;;;22.30;43.70;;;;;;5031367;28;46343;-63
2022/06/28 11:54:28;;;;;;;5.20;3.63;;;22.20;43.70;;;;;;5034288;28;46596;-62
2022/06/28 11:56:54;;;;;;;6.63;3.23;;;22.10;44.30;;;;;;5048576;28;46503;-63
2022/06/28 11:59:40;;;;;;;8.57;3.40;;;22.00;44.90;;;;;;5033545;28;47203;-64
2022/06/28 12:02:06;;;;;;;4.50;3.60;;;22.00;45.00;;;;;;5032895;28;46827;-61
2022/06/28 12:04:31;;;;;;;7.00;3.93;;;21.90;45.20;;;;;;5047153;28;46411;-62
2022/06/28 12:06:57;;;;;;;5.73;4.00;;;22.00;45.20;;;;;;5032123;28;46308;-62
2022/06/28 12:09:23;;;;;;;6.50;3.63;;;22.10;45.50;;;;;;5032343;28;46421;-63
2022/06/28 12:11:53;;;;;;;8.47;3.53;;;22.20;45.10;;;;;;5032890;28;46358;-62
2022/06/28 12:14:21;;;;;;;4.93;3.40;;;22.20;45.30;;;;;;5031224;28;46522;-61
2022/06/28 12:17:11;;;;;;;8.07;4.20;;;22.30;45.30;;;;;;5031457;28;46629;-61
2022/06/28 12:19:38;;;;;;;6.27;3.83;;;22.30;45.00;;;;;;5031385;28;46405;-61
2022/06/28 12:22:10;;;;;;;6.70;4.00;;;22.00;45.50;;;;;;5032563;28;46546;-61
2022/06/28 12:24:47;;;;;;;5.90;3.83;;;22.00;45.90;;;;;;5030552;28;46389;-61
2022/06/28 12:27:14;;;;;;;6.83;3.87;;;22.00;46.10;;;;;;5030734;28;46405;-62
2022/06/28 12:29:40;;;;;;;7.30;5.00;;;22.20;45.70;;;;;;5027704;28;47089;-62
2022/06/28 12:32:06;;;;;;;6.50;4.30;;;22.40;45.10;;;;;;5035360;28;45817;-61
2022/06/28 12:34:31;;;;;;;6.10;4.20;;;22.50;44.90;;;;;;5028461;28;46498;-60
2022/06/28 12:36:57;;;;;;;8.50;4.03;;;22.60;44.90;;;;;;5032151;28;46290;-62
2022/06/28 12:39:23;;;;;;;6.07;4.63;;;22.60;44.90;;;;;;5032319;28;46349;-62
2022/06/28 12:41:48;;;;;;;5.13;4.63;;;22.70;44.70;;;;;;5030191;28;46735;-61
2022/06/28 12:44:15;;;;;;;6.60;5.27;;;22.60;44.90;;;;;;5036184;28;46429;-62
2022/06/28 12:46:41;;;;;;;6.33;5.13;;;22.20;45.40;;;;;;5030326;28;46669;-62
2022/06/28 12:49:06;;;;;;;6.83;5.57;;;22.10;45.80;;;;;;5033685;28;46508;-63
2022/06/28 12:51:32;;;;;;;8.93;5.10;;;22.20;45.80;;;;;;5032250;28;46487;-63
2022/06/28 12:53:58;;;;;;;6.77;5.07;;;22.20;45.60;;;;;;5042493;28;46492;-62
2022/06/28 12:56:24;;;;;;;7.67;4.73;;;22.30;45.50;;;;;;5030175;28;46481;-61
2022/06/28 12:58:50;;;;;;;6.80;4.83;;;22.40;45.50;;;;;;5032010;28;46950;-61
2022/06/28 13:01:16;;;;;;;7.10;5.23;;;22.40;45.90;;;;;;5031573;28;46409;-61